Time;durP1;ratioP1;P1;durP2;ratioP2;P2;SDS_P1;SDS_P2;PMS_P1;PMS_P2;Temp;Humidity;BMP_temperature;BMP_pressure;BME280_temperature;BME280_humidity;BME280_pressure;Samples;Min_cycle;Max_cycle;Signal;HPM_P1;HPM_P2
2021/07/04 00:00:58;;;;;;;8.90;6.58;;;;;;;;;;370591;108;1961989;-73
2021/07/04 00:02:04;;;;;;;9.35;6.29;;;;;;;;;;370896;107;1960952;-72
2021/07/04 00:03:09;;;;;;;10.14;6.54;;;;;;;;;;374902;106;1960745;-72
2021/07/04 00:04:14;;;;;;;9.59;6.21;;;;;;;;;;371663;108;1960660;-73
2021/07/04 00:05:19;;;;;;;12.12;7.34;;;;;;;;;;371749;108;1960780;-72
2021/07/04 00:06:25;;;;;;;12.53;7.42;;;;;;;;;;370468;107;1961078;-73
2021/07/04 00:07:29;;;;;;;10.42;7.29;;;;;;;;;;370989;107;1960799;-73
2021/07/04 00:08:34;;;;;;;10.16;6.99;;;;;;;;;;370496;107;1961909;-72
2021/07/04 00:09:40;;;;;;;13.40;7.57;;;;;;;;;;371472;109;1961911;-73
2021/07/04 00:10:51;;;;;;;11.01;7.83;;;;;;;;;;370665;107;1964001;-73
2021/07/04 00:11:56;;;;;;;11.24;7.72;;;;;;;;;;369962;108;1963965;-73
2021/07/04 00:13:08;;;;;;;11.48;7.33;;;;;;;;;;396439;104;1986054;-72
2021/07/04 00:14:15;;;;;;;14.21;8.07;;;;;;;;;;324225;107;2871889;-71
2021/07/04 00:15:21;;;;;;;11.71;7.02;;;;;;;;;;309643;107;2240035;-71
2021/07/04 00:16:27;;;;;;;9.74;6.56;;;;;;;;;;370035;107;1961935;-71
2021/07/04 00:17:32;;;;;;;10.08;6.71;;;;;;;;;;371770;107;1962004;-72
2021/07/04 00:18:37;;;;;;;11.49;6.89;;;;;;;;;;370487;107;1965021;-71
2021/07/04 00:19:42;;;;;;;9.98;6.84;;;;;;;;;;371277;107;1963946;-72
2021/07/04 00:20:54;;;;;;;9.87;6.73;;;;;;;;;;398759;101;2071842;-71
2021/07/04 00:22:00;;;;;;;11.35;7.42;;;;;;;;;;383792;105;1962888;-71
2021/07/04 00:23:06;;;;;;;11.44;7.05;;;;;;;;;;381677;105;1962053;-71
2021/07/04 00:24:12;;;;;;;10.91;6.99;;;;;;;;;;325625;105;2892909;-71
2021/07/04 00:25:18;;;;;;;11.21;6.59;;;;;;;;;;345586;105;2510038;-70
2021/07/04 00:26:23;;;;;;;12.98;6.96;;;;;;;;;;371779;105;1962042;-71
2021/07/04 00:27:28;;;;;;;10.98;7.29;;;;;;;;;;353660;105;1963073;-70
2021/07/04 00:28:33;;;;;;;11.21;7.59;;;;;;;;;;322572;105;2177054;-72
2021/07/04 00:29:39;;;;;;;10.55;7.43;;;;;;;;;;372472;105;1960900;-71
2021/07/04 00:30:44;;;;;;;11.50;7.24;;;;;;;;;;377361;105;1961913;-68
2021/07/04 00:31:49;;;;;;;9.86;6.92;;;;;;;;;;372942;105;1962151;-72
2021/07/04 00:32:54;;;;;;;10.19;6.82;;;;;;;;;;358878;105;1961917;-72
2021/07/04 00:33:59;;;;;;;13.42;7.54;;;;;;;;;;343920;106;1979018;-71
2021/07/04 00:35:13;;;;;;;12.00;7.67;;;;;;;;;;385236;105;2073894;-71
2021/07/04 00:36:25;;;;;;;9.31;6.65;;;;;;;;;;362234;106;2457942;-71
2021/07/04 00:37:48;;;;;;;9.69;7.69;;;;;;;;;;373143;107;1963026;-70
2021/07/04 00:38:54;;;;;;;9.64;7.13;;;;;;;;;;372185;107;1961817;-71
2021/07/04 00:39:59;;;;;;;9.77;6.51;;;;;;;;;;368654;109;1961952;-71
2021/07/04 00:41:11;;;;;;;11.61;7.34;;;;;;;;;;364181;104;1986039;-71
2021/07/04 00:42:16;;;;;;;11.20;7.51;;;;;;;;;;319426;106;2196987;-72
2021/07/04 00:43:22;;;;;;;10.04;7.33;;;;;;;;;;342160;106;1987134;-72
2021/07/04 00:44:33;;;;;;;10.48;7.03;;;;;;;;;;398777;104;1986023;-72
2021/07/04 00:45:38;;;;;;;10.36;7.54;;;;;;;;;;375701;105;1961965;-71
2021/07/04 00:46:46;;;;;;;11.64;7.38;;;;;;;;;;374796;107;1962066;-72
2021/07/04 00:47:57;;;;;;;11.32;7.56;;;;;;;;;;348617;109;2030025;-71
2021/07/04 00:49:03;;;;;;;11.53;7.91;;;;;;;;;;322546;111;2038915;-72
2021/07/04 00:50:09;;;;;;;11.44;7.93;;;;;;;;;;361664;111;1962924;-72
2021/07/04 00:51:14;;;;;;;10.89;7.59;;;;;;;;;;355913;111;1962017;-72
2021/07/04 00:52:25;;;;;;;10.21;7.46;;;;;;;;;;395773;104;1987024;-71
2021/07/04 00:53:30;;;;;;;10.88;7.80;;;;;;;;;;374580;107;1961955;-73
2021/07/04 00:54:36;;;;;;;10.81;6.59;;;;;;;;;;372634;107;1962040;-72
2021/07/04 00:55:41;;;;;;;9.31;7.08;;;;;;;;;;370284;108;1962023;-71
2021/07/04 00:56:51;;;;;;;10.25;7.13;;;;;;;;;;371186;107;1961959;-71
2021/07/04 00:57:57;;;;;;;10.56;7.27;;;;;;;;;;371314;107;1962009;-74
2021/07/04 00:59:04;;;;;;;9.19;6.59;;;;;;;;;;372400;108;1961936;-73
2021/07/04 01:00:12;;;;;;;11.41;7.58;;;;;;;;;;340350;107;2533015;-72
2021/07/04 01:01:19;;;;;;;8.71;6.66;;;;;;;;;;367088;107;1962056;-73
2021/07/04 01:02:26;;;;;;;10.72;7.62;;;;;;;;;;324177;108;2821930;-73
2021/07/04 01:03:31;;;;;;;12.07;7.42;;;;;;;;;;370759;107;1962042;-72
2021/07/04 01:04:36;;;;;;;10.02;7.16;;;;;;;;;;362930;111;1963704;-70
2021/07/04 01:05:43;;;;;;;10.94;7.36;;;;;;;;;;355871;112;1961974;-72
2021/07/04 01:06:50;;;;;;;9.96;6.89;;;;;;;;;;357538;109;2929036;-68
2021/07/04 01:08:03;;;;;;;10.76;7.56;;;;;;;;;;367997;103;1986015;-72
2021/07/04 01:09:08;;;;;;;13.54;7.16;;;;;;;;;;376168;106;1961854;-71
2021/07/04 01:10:18;;;;;;;10.20;7.27;;;;;;;;;;375740;105;1961916;-71
2021/07/04 01:11:24;;;;;;;10.63;7.77;;;;;;;;;;373106;107;1961035;-70
2021/07/04 01:12:29;;;;;;;11.49;7.39;;;;;;;;;;373307;105;1962016;-69
2021/07/04 01:13:35;;;;;;;11.93;7.04;;;;;;;;;;372897;107;1962069;-70
2021/07/04 01:14:48;;;;;;;9.49;7.15;;;;;;;;;;329961;107;2091007;-71
2021/07/04 01:15:53;;;;;;;10.64;7.49;;;;;;;;;;306683;107;2272960;-71
2021/07/04 01:16:58;;;;;;;10.09;7.46;;;;;;;;;;314418;107;2191974;-71
2021/07/04 01:18:05;;;;;;;10.19;7.21;;;;;;;;;;327492;107;2057955;-71
2021/07/04 01:19:18;;;;;;;11.36;7.16;;;;;;;;;;387767;106;1987899;-69
2021/07/04 01:20:26;;;;;;;9.96;7.18;;;;;;;;;;312218;108;2202036;-71
2021/07/04 01:21:31;;;;;;;11.58;7.79;;;;;;;;;;368696;109;1961998;-70
2021/07/04 01:22:40;;;;;;;11.14;7.99;;;;;;;;;;367600;107;1962003;-70
2021/07/04 01:23:46;;;;;;;9.41;6.66;;;;;;;;;;371197;109;1962039;-69
2021/07/04 01:24:51;;;;;;;9.77;6.41;;;;;;;;;;371454;107;1962037;-68
2021/07/04 01:25:56;;;;;;;12.03;7.71;;;;;;;;;;371216;109;1961807;-70
2021/07/04 01:27:06;;;;;;;10.85;7.52;;;;;;;;;;370342;108;1962946;-70
2021/07/04 01:28:18;;;;;;;10.48;6.65;;;;;;;;;;397780;104;1986009;-72
2021/07/04 01:29:24;;;;;;;10.70;6.91;;;;;;;;;;369633;108;1961999;-71
2021/07/04 01:30:30;;;;;;;11.38;7.33;;;;;;;;;;369559;108;1962966;-71
2021/07/04 01:31:37;;;;;;;9.74;6.93;;;;;;;;;;318046;111;2834991;-71
2021/07/04 01:32:43;;;;;;;10.23;7.81;;;;;;;;;;370340;107;1962026;-70
2021/07/04 01:33:50;;;;;;;11.46;7.84;;;;;;;;;;368884;109;1962013;-68
2021/07/04 01:34:57;;;;;;;11.96;8.45;;;;;;;;;;311650;109;2164003;-70
2021/07/04 01:36:02;;;;;;;10.94;7.42;;;;;;;;;;308428;111;2364992;-70
2021/07/04 01:37:09;;;;;;;11.87;7.29;;;;;;;;;;370116;107;1964975;-72
2021/07/04 01:38:14;;;;;;;10.85;7.72;;;;;;;;;;372225;107;1962024;-72
2021/07/04 01:39:19;;;;;;;9.74;7.09;;;;;;;;;;368706;107;1962040;-71
2021/07/04 01:40:26;;;;;;;12.54;7.54;;;;;;;;;;369504;107;1961988;-70
2021/07/04 01:41:33;;;;;;;9.87;7.02;;;;;;;;;;369591;107;1963014;-71
2021/07/04 01:42:41;;;;;;;9.87;6.86;;;;;;;;;;356689;107;1962066;-71
2021/07/04 01:43:47;;;;;;;11.27;7.80;;;;;;;;;;366648;109;1962005;-71
2021/07/04 01:44:53;;;;;;;10.88;7.92;;;;;;;;;;370201;107;1963023;-71
2021/07/04 01:45:58;;;;;;;10.08;7.19;;;;;;;;;;358242;108;2930820;-70
2021/07/04 01:47:09;;;;;;;9.89;7.37;;;;;;;;;;373636;104;1987826;-70
2021/07/04 01:48:16;;;;;;;10.59;7.79;;;;;;;;;;372896;109;1960810;-71
2021/07/04 01:49:29;;;;;;;10.64;7.47;;;;;;;;;;394767;103;1984996;-70
2021/07/04 01:50:37;;;;;;;9.33;6.91;;;;;;;;;;361918;110;1968978;-69
2021/07/04 01:52:02;;;;;;;11.81;7.61;;;;;;;;;;376884;106;1960729;-71
2021/07/04 01:53:08;;;;;;;10.21;6.99;;;;;;;;;;373522;106;1961980;-71
2021/07/04 01:54:14;;;;;;;10.49;7.22;;;;;;;;;;372542;109;1961918;-71
2021/07/04 01:55:20;;;;;;;12.19;7.96;;;;;;;;;;370462;109;1961006;-71
2021/07/04 01:56:27;;;;;;;10.86;7.29;;;;;;;;;;362334;110;1960920;-71
2021/07/04 01:57:35;;;;;;;11.27;7.46;;;;;;;;;;364245;111;1961934;-68
2021/07/04 01:58:42;;;;;;;10.99;7.61;;;;;;;;;;312140;109;2205005;-70
2021/07/04 01:59:47;;;;;;;10.73;7.81;;;;;;;;;;343135;109;1962901;-72
2021/07/04 02:00:54;;;;;;;10.68;7.91;;;;;;;;;;366292;109;1962069;-70
2021/07/04 02:01:59;;;;;;;12.06;8.02;;;;;;;;;;366500;109;1961751;-72
2021/07/04 02:03:11;;;;;;;11.34;7.97;;;;;;;;;;367494;109;1961984;-72
2021/07/04 02:04:23;;;;;;;12.03;7.87;;;;;;;;;;348186;104;2149847;-70
2021/07/04 02:05:33;;;;;;;12.50;7.96;;;;;;;;;;329008;105;2856038;-70
2021/07/04 02:06:44;;;;;;;12.04;7.88;;;;;;;;;;378684;107;1962971;-71
2021/07/04 02:07:51;;;;;;;25.82;9.29;;;;;;;;;;378549;105;1961934;-71
2021/07/04 02:08:56;;;;;;;12.21;8.82;;;;;;;;;;374645;105;1963870;-70
2021/07/04 02:10:05;;;;;;;12.02;7.88;;;;;;;;;;340470;106;2583554;-70
2021/07/04 02:11:12;;;;;;;9.72;7.42;;;;;;;;;;372953;107;1964917;-69
2021/07/04 02:12:19;;;;;;;11.17;8.19;;;;;;;;;;331986;107;2758998;-70
2021/07/04 02:13:26;;;;;;;11.86;8.08;;;;;;;;;;376060;107;1962066;-68
2021/07/04 02:14:38;;;;;;;11.61;8.89;;;;;;;;;;396927;104;1986970;-71
2021/07/04 02:15:45;;;;;;;11.41;8.69;;;;;;;;;;360934;107;1962089;-70
2021/07/04 02:16:52;;;;;;;11.37;9.14;;;;;;;;;;368863;109;1961933;-71
2021/07/04 02:18:18;;;;;;;12.90;9.61;;;;;;;;;;368005;108;1962027;-70
2021/07/04 02:19:32;;;;;;;13.12;9.72;;;;;;;;;;362326;104;2639020;-72
2021/07/04 02:20:46;;;;;;;11.54;9.17;;;;;;;;;;347619;106;2521996;-70
2021/07/04 02:21:57;;;;;;;10.78;8.19;;;;;;;;;;404626;101;1985959;-71
2021/07/04 02:23:08;;;;;;;11.83;9.41;;;;;;;;;;382898;105;1961927;-69
2021/07/04 02:24:46;;;;;;;13.21;8.79;;;;;;;;;;326853;107;2787975;-70
2021/07/04 02:25:54;;;;;;;11.92;9.51;;;;;;;;;;373833;105;1962023;-70
2021/07/04 02:28:26;;;;;;;13.36;9.72;;;;;;;;;;393323;103;1984850;-70
2021/07/04 02:30:27;;;;;;;11.18;9.06;;;;;;;;;;373681;105;1960910;-71
2021/07/04 02:32:12;;;;;;;16.36;9.55;;;;;;;;;;394288;103;2045729;-71
2021/07/04 02:34:10;;;;;;;11.96;9.27;;;;;;;;;;372420;106;1968849;-71
2021/07/04 02:35:25;;;;;;;13.03;9.06;;;;;;;;;;379172;106;1961005;-71
2021/07/04 02:36:36;;;;;;;12.52;10.13;;;;;;;;;;381852;108;1986057;-71
2021/07/04 02:37:45;;;;;;;12.59;8.94;;;;;;;;;;362662;109;1961057;-71
2021/07/04 02:38:51;;;;;;;12.71;9.10;;;;;;;;;;355865;111;1961868;-71
2021/07/04 02:39:58;;;;;;;14.21;9.13;;;;;;;;;;357230;111;1962963;-69
2021/07/04 02:41:04;;;;;;;12.49;9.19;;;;;;;;;;333919;111;2886948;-70
2021/07/04 02:42:15;;;;;;;12.73;10.43;;;;;;;;;;395469;104;2071057;-70
2021/07/04 02:43:22;;;;;;;12.75;10.26;;;;;;;;;;378279;107;1969990;-70
2021/07/04 02:44:35;;;;;;;14.51;10.53;;;;;;;;;;367770;102;1994999;-71
2021/07/04 02:45:41;;;;;;;12.99;10.44;;;;;;;;;;383102;105;1962066;-71
2021/07/04 02:47:05;;;;;;;12.83;10.87;;;;;;;;;;338458;103;2738046;-71
2021/07/04 02:48:11;;;;;;;12.40;9.82;;;;;;;;;;304562;107;2279466;-72
2021/07/04 02:49:22;;;;;;;12.23;9.84;;;;;;;;;;390285;104;2070927;-71
2021/07/04 02:50:31;;;;;;;14.76;9.76;;;;;;;;;;328193;107;2065042;-71
2021/07/04 02:51:36;;;;;;;12.28;9.81;;;;;;;;;;346246;107;1963977;-71
2021/07/04 02:52:41;;;;;;;14.37;9.92;;;;;;;;;;335208;105;2010994;-71
2021/07/04 02:53:47;;;;;;;12.53;9.02;;;;;;;;;;365034;110;1963043;-71
2021/07/04 02:54:54;;;;;;;13.23;9.47;;;;;;;;;;363620;109;1962015;-72
2021/07/04 02:56:01;;;;;;;14.55;9.87;;;;;;;;;;370475;107;1961863;-71
2021/07/04 02:57:07;;;;;;;14.51;11.33;;;;;;;;;;349527;107;1963991;-70
2021/07/04 02:58:14;;;;;;;14.86;11.62;;;;;;;;;;370908;107;1961969;-71
2021/07/04 02:59:19;;;;;;;14.36;11.52;;;;;;;;;;371818;109;1961885;-68
2021/07/04 03:00:26;;;;;;;13.91;10.84;;;;;;;;;;368041;108;1961994;-70
2021/07/04 03:01:32;;;;;;;12.61;10.82;;;;;;;;;;367196;110;1961861;-71
2021/07/04 03:02:38;;;;;;;17.02;11.07;;;;;;;;;;318772;110;2765972;-70
2021/07/04 03:03:44;;;;;;;13.59;9.73;;;;;;;;;;370142;108;1961916;-71
2021/07/04 03:04:49;;;;;;;12.14;9.13;;;;;;;;;;371548;107;1963044;-71
2021/07/04 03:06:01;;;;;;;12.77;9.34;;;;;;;;;;391656;104;1986989;-69
2021/07/04 03:07:06;;;;;;;11.33;8.29;;;;;;;;;;376482;107;1964033;-71
2021/07/04 03:08:13;;;;;;;14.01;9.44;;;;;;;;;;369132;107;1965023;-71
2021/07/04 03:09:18;;;;;;;13.48;9.88;;;;;;;;;;360378;110;1962056;-70
2021/07/04 03:10:25;;;;;;;13.45;9.52;;;;;;;;;;344622;109;1962970;-70
2021/07/04 03:11:31;;;;;;;13.33;9.39;;;;;;;;;;368722;109;1962069;-71
2021/07/04 03:12:36;;;;;;;12.16;9.72;;;;;;;;;;367714;110;1963922;-70
2021/07/04 03:13:42;;;;;;;14.58;9.11;;;;;;;;;;367871;109;1965001;-71
2021/07/04 03:14:47;;;;;;;13.75;9.72;;;;;;;;;;366769;109;1962022;-70
2021/07/04 03:15:52;;;;;;;12.91;10.22;;;;;;;;;;367902;108;1961921;-72
2021/07/04 03:16:58;;;;;;;14.11;10.30;;;;;;;;;;367757;109;1962052;-72
2021/07/04 03:18:10;;;;;;;15.69;11.71;;;;;;;;;;396259;104;1985942;-71
2021/07/04 03:19:17;;;;;;;14.67;10.96;;;;;;;;;;363366;107;1960963;-71
2021/07/04 03:20:24;;;;;;;17.62;11.81;;;;;;;;;;369655;109;1962924;-71
2021/07/04 03:21:32;;;;;;;16.83;12.29;;;;;;;;;;333756;107;2404953;-71
2021/07/04 03:22:38;;;;;;;15.56;11.62;;;;;;;;;;356139;109;1961998;-70
2021/07/04 03:23:44;;;;;;;15.31;11.13;;;;;;;;;;360505;110;1962179;-71
2021/07/04 03:24:50;;;;;;;17.42;13.06;;;;;;;;;;363898;110;1961832;-71
2021/07/04 03:25:55;;;;;;;15.74;11.42;;;;;;;;;;364498;110;1963121;-70
2021/07/04 03:27:07;;;;;;;19.86;13.44;;;;;;;;;;383028;104;3005979;-71
2021/07/04 03:28:13;;;;;;;15.54;12.89;;;;;;;;;;328854;107;2096072;-70
2021/07/04 03:29:24;;;;;;;15.66;12.11;;;;;;;;;;387096;106;1985950;-72
2021/07/04 03:30:31;;;;;;;16.17;11.72;;;;;;;;;;361055;110;1960607;-71
2021/07/04 03:31:54;;;;;;;17.67;12.14;;;;;;;;;;344390;110;1962114;-71
2021/07/04 03:33:00;;;;;;;16.80;13.26;;;;;;;;;;362856;110;1963022;-71
2021/07/04 03:34:06;;;;;;;15.84;11.75;;;;;;;;;;364825;108;1964057;-71
2021/07/04 03:35:12;;;;;;;14.04;11.41;;;;;;;;;;359173;110;1962966;-70
2021/07/04 03:36:20;;;;;;;14.49;11.62;;;;;;;;;;304135;112;2382079;-71
2021/07/04 03:37:25;;;;;;;16.15;12.64;;;;;;;;;;328186;114;2443021;-71
2021/07/04 03:38:31;;;;;;;17.39;13.79;;;;;;;;;;320630;112;1969015;-72
2021/07/04 03:39:36;;;;;;;18.86;12.66;;;;;;;;;;349047;112;1964103;-70
2021/07/04 03:40:41;;;;;;;15.41;11.76;;;;;;;;;;336215;110;1962055;-70
2021/07/04 03:41:48;;;;;;;17.03;11.48;;;;;;;;;;359905;112;1962058;-71
2021/07/04 03:42:53;;;;;;;14.33;11.04;;;;;;;;;;357577;114;1961883;-71
2021/07/04 03:44:00;;;;;;;13.86;10.51;;;;;;;;;;365035;110;1961993;-70
2021/07/04 03:45:06;;;;;;;13.96;10.63;;;;;;;;;;365661;110;1961992;-72
2021/07/04 03:46:12;;;;;;;15.79;10.56;;;;;;;;;;326354;110;2019966;-70
2021/07/04 03:47:25;;;;;;;12.51;9.51;;;;;;;;;;386014;106;1987068;-70
2021/07/04 03:48:31;;;;;;;11.33;8.77;;;;;;;;;;358164;109;2898927;-71
2021/07/04 03:49:43;;;;;;;11.84;9.94;;;;;;;;;;362741;106;1985974;-70
2021/07/04 03:50:50;;;;;;;13.44;9.96;;;;;;;;;;369803;108;1969053;-71
2021/07/04 03:52:13;;;;;;;11.81;9.12;;;;;;;;;;347287;108;1963000;-71
2021/07/04 03:53:19;;;;;;;12.51;9.36;;;;;;;;;;369891;109;1961920;-70
2021/07/04 03:54:25;;;;;;;12.82;9.91;;;;;;;;;;374943;107;1961953;-72
2021/07/04 03:55:37;;;;;;;12.87;9.61;;;;;;;;;;394616;103;1984871;-71
2021/07/04 03:56:42;;;;;;;13.52;10.39;;;;;;;;;;365597;108;1960796;-72
2021/07/04 03:57:53;;;;;;;12.73;9.34;;;;;;;;;;392785;104;1984722;-71
2021/07/04 03:59:04;;;;;;;14.21;9.79;;;;;;;;;;371670;107;1962911;-71
2021/07/04 04:00:29;;;;;;;14.56;9.12;;;;;;;;;;370892;107;1960704;-71
2021/07/04 04:01:36;;;;;;;12.51;9.84;;;;;;;;;;367969;107;1960783;-71
2021/07/04 04:02:47;;;;;;;12.48;9.41;;;;;;;;;;396715;104;1984864;-71
2021/07/04 04:03:55;;;;;;;15.67;11.71;;;;;;;;;;377929;106;1960773;-70
2021/07/04 04:05:00;;;;;;;18.56;11.25;;;;;;;;;;376333;107;1961014;-71
2021/07/04 04:06:05;;;;;;;17.91;11.39;;;;;;;;;;377234;107;1962921;-71
2021/07/04 04:07:17;;;;;;;15.19;11.54;;;;;;;;;;361086;106;1989892;-69
2021/07/04 04:08:22;;;;;;;16.39;12.40;;;;;;;;;;333149;107;2047920;-70
2021/07/04 04:09:27;;;;;;;15.89;11.76;;;;;;;;;;351739;109;1962883;-70
2021/07/04 04:10:36;;;;;;;14.81;10.80;;;;;;;;;;368398;108;1961901;-71
2021/07/04 04:11:43;;;;;;;16.14;12.99;;;;;;;;;;352925;109;1964052;-72
2021/07/04 04:12:54;;;;;;;15.70;12.64;;;;;;;;;;387432;106;1985853;-71
2021/07/04 04:13:59;;;;;;;14.32;12.26;;;;;;;;;;364776;109;1970049;-71
2021/07/04 04:15:11;;;;;;;15.11;11.89;;;;;;;;;;386147;106;1986936;-70
2021/07/04 04:16:19;;;;;;;18.39;12.88;;;;;;;;;;306310;109;2248076;-70
2021/07/04 04:17:41;;;;;;;14.41;11.53;;;;;;;;;;359793;112;1961945;-71
2021/07/04 04:18:49;;;;;;;16.26;12.02;;;;;;;;;;342805;111;2853029;-70
2021/07/04 04:19:55;;;;;;;15.50;11.66;;;;;;;;;;327455;110;1998972;-72
2021/07/04 04:21:07;;;;;;;18.22;12.21;;;;;;;;;;395836;104;1985953;-70
2021/07/04 04:22:12;;;;;;;14.14;11.14;;;;;;;;;;375584;106;1970016;-72
2021/07/04 04:23:19;;;;;;;14.80;10.96;;;;;;;;;;378078;107;1961939;-70
2021/07/04 04:24:26;;;;;;;17.08;11.52;;;;;;;;;;335785;107;2606918;-71
2021/07/04 04:25:32;;;;;;;18.47;14.25;;;;;;;;;;369682;107;1961968;-70
2021/07/04 04:26:39;;;;;;;18.94;14.58;;;;;;;;;;371610;107;1961956;-71
2021/07/04 04:27:45;;;;;;;19.82;14.95;;;;;;;;;;371607;107;1962075;-71
2021/07/04 04:28:52;;;;;;;18.20;14.76;;;;;;;;;;363733;107;1961003;-71
2021/07/04 04:29:58;;;;;;;19.46;14.78;;;;;;;;;;337789;110;1961918;-70
2021/07/04 04:31:15;;;;;;;19.08;14.15;;;;;;;;;;401195;101;1986008;-68
2021/07/04 04:32:20;;;;;;;18.66;13.74;;;;;;;;;;384539;103;1970833;-71
2021/07/04 04:33:26;;;;;;;19.26;14.49;;;;;;;;;;385237;105;1960867;-70
2021/07/04 04:34:31;;;;;;;20.80;15.01;;;;;;;;;;377106;107;1961989;-72
2021/07/04 04:35:38;;;;;;;20.71;14.56;;;;;;;;;;369966;105;2955060;-70
2021/07/04 04:36:43;;;;;;;21.26;13.86;;;;;;;;;;378573;105;1961958;-70
2021/07/04 04:37:48;;;;;;;21.35;14.81;;;;;;;;;;378558;105;1962040;-70
2021/07/04 04:38:54;;;;;;;21.38;14.73;;;;;;;;;;377799;105;1961960;-71
2021/07/04 04:39:59;;;;;;;18.81;14.28;;;;;;;;;;378045;105;1961930;-70
2021/07/04 04:41:04;;;;;;;19.95;13.59;;;;;;;;;;379361;105;1961985;-71
2021/07/04 04:42:09;;;;;;;22.83;15.39;;;;;;;;;;379129;105;1961972;-72
2021/07/04 04:43:15;;;;;;;22.92;15.11;;;;;;;;;;379991;105;1960949;-71
2021/07/04 04:44:20;;;;;;;26.29;15.56;;;;;;;;;;380227;107;1960871;-71
2021/07/04 04:45:25;;;;;;;24.95;16.10;;;;;;;;;;376065;105;1961060;-71
2021/07/04 04:46:32;;;;;;;21.09;15.76;;;;;;;;;;350787;106;1960923;-72
2021/07/04 04:47:37;;;;;;;20.46;15.01;;;;;;;;;;359962;105;1960882;-71
2021/07/04 04:48:43;;;;;;;26.96;16.27;;;;;;;;;;348415;105;1962995;-71
2021/07/04 04:49:48;;;;;;;20.92;15.05;;;;;;;;;;378915;105;1962909;-71
2021/07/04 04:50:53;;;;;;;23.64;17.33;;;;;;;;;;376328;105;1962003;-71
2021/07/04 04:51:58;;;;;;;22.66;15.79;;;;;;;;;;360256;105;1961997;-71
2021/07/04 04:53:03;;;;;;;25.67;17.34;;;;;;;;;;353645;105;1960866;-70
2021/07/04 04:54:09;;;;;;;23.20;16.03;;;;;;;;;;322987;105;2197938;-71
2021/07/04 04:55:15;;;;;;;25.02;17.88;;;;;;;;;;377899;105;1961984;-71
2021/07/04 04:56:20;;;;;;;24.52;16.96;;;;;;;;;;378888;106;1962098;-71
2021/07/04 04:57:25;;;;;;;26.84;18.45;;;;;;;;;;366855;106;1962013;-71
2021/07/04 04:58:30;;;;;;;25.91;18.26;;;;;;;;;;345370;105;2009956;-71
2021/07/04 04:59:36;;;;;;;26.92;18.72;;;;;;;;;;319501;105;2409980;-72
2021/07/04 05:00:48;;;;;;;29.36;19.19;;;;;;;;;;400476;104;1972069;-71
2021/07/04 05:01:53;;;;;;;26.39;18.01;;;;;;;;;;381283;105;1961912;-71
2021/07/04 05:03:05;;;;;;;26.73;18.01;;;;;;;;;;380635;105;1963000;-71
2021/07/04 05:04:06;;;;;;;24.15;16.39;;;;;;;;;;382981;105;1960888;-71
2021/07/04 05:05:18;;;;;;;27.19;18.06;;;;;;;;;;391516;104;1985914;-71
2021/07/04 05:06:24;;;;;;;25.08;18.09;;;;;;;;;;372112;109;1963932;-71
2021/07/04 05:07:29;;;;;;;27.19;19.24;;;;;;;;;;372059;109;1963014;-71
2021/07/04 05:08:34;;;;;;;25.17;18.20;;;;;;;;;;378050;106;1962963;-71
2021/07/04 05:09:39;;;;;;;25.70;18.49;;;;;;;;;;378246;106;1962040;-71
2021/07/04 05:10:45;;;;;;;23.09;17.41;;;;;;;;;;377670;106;1961987;-71
2021/07/04 05:11:51;;;;;;;28.00;18.31;;;;;;;;;;381371;106;1961834;-71
2021/07/04 05:12:56;;;;;;;23.39;16.85;;;;;;;;;;378643;106;1961975;-71
2021/07/04 05:14:02;;;;;;;22.87;17.36;;;;;;;;;;377074;108;1961887;-71
2021/07/04 05:15:09;;;;;;;23.03;16.77;;;;;;;;;;377979;106;1961012;-71
2021/07/04 05:16:15;;;;;;;23.83;17.19;;;;;;;;;;336249;106;2873968;-71
2021/07/04 05:17:21;;;;;;;23.64;16.58;;;;;;;;;;318013;106;2260874;-71
2021/07/04 05:18:27;;;;;;;21.92;16.07;;;;;;;;;;377253;106;1965008;-70
2021/07/04 05:19:32;;;;;;;21.17;15.18;;;;;;;;;;379192;105;1961972;-71
2021/07/04 05:20:39;;;;;;;25.89;17.70;;;;;;;;;;378075;106;1960812;-72
2021/07/04 05:21:44;;;;;;;22.50;16.31;;;;;;;;;;376985;106;1961940;-72
2021/07/04 05:22:56;;;;;;;26.41;17.99;;;;;;;;;;376569;109;1985051;-71
2021/07/04 05:24:02;;;;;;;24.97;17.61;;;;;;;;;;353802;113;1962021;-70
2021/07/04 05:25:13;;;;;;;21.38;15.83;;;;;;;;;;391509;104;1961952;-72
2021/07/04 05:26:20;;;;;;;22.41;15.33;;;;;;;;;;376512;107;1963895;-71
2021/07/04 05:27:44;;;;;;;22.03;16.43;;;;;;;;;;343882;105;2591006;-72
2021/07/04 05:28:49;;;;;;;22.99;17.31;;;;;;;;;;300567;106;2408942;-71
2021/07/04 05:29:54;;;;;;;22.67;15.01;;;;;;;;;;308527;106;2354898;-72
2021/07/04 05:31:00;;;;;;;20.13;13.62;;;;;;;;;;316012;106;2280855;-72
2021/07/04 05:32:05;;;;;;;18.99;13.75;;;;;;;;;;350838;106;1960752;-72
2021/07/04 05:33:11;;;;;;;23.98;14.51;;;;;;;;;;361186;107;1960887;-72
2021/07/04 05:34:16;;;;;;;17.59;12.86;;;;;;;;;;335415;107;2052749;-73
2021/07/04 05:35:21;;;;;;;18.11;13.50;;;;;;;;;;302977;106;2405857;-72
2021/07/04 05:36:27;;;;;;;18.81;14.39;;;;;;;;;;342405;103;2056713;-72
2021/07/04 05:37:33;;;;;;;21.28;14.64;;;;;;;;;;303170;105;2405779;-71
2021/07/04 05:38:40;;;;;;;18.47;13.86;;;;;;;;;;378651;104;1960778;-72
2021/07/04 05:39:45;;;;;;;18.16;13.80;;;;;;;;;;378080;105;1960752;-71
2021/07/04 05:40:50;;;;;;;19.40;14.11;;;;;;;;;;378720;105;1960678;-71
2021/07/04 05:42:03;;;;;;;19.44;14.07;;;;;;;;;;392956;104;2072895;-71
2021/07/04 05:43:08;;;;;;;18.99;12.95;;;;;;;;;;373587;107;1960794;-74
2021/07/04 05:44:13;;;;;;;19.00;13.70;;;;;;;;;;377804;106;1960798;-71
2021/07/04 05:45:20;;;;;;;17.44;12.97;;;;;;;;;;377654;106;1960749;-71
2021/07/04 05:46:26;;;;;;;19.40;13.70;;;;;;;;;;384041;105;1960796;-71
2021/07/04 05:47:31;;;;;;;20.75;12.87;;;;;;;;;;381701;106;1962779;-71
2021/07/04 05:48:37;;;;;;;16.01;12.13;;;;;;;;;;372736;106;1960839;-71
2021/07/04 05:49:42;;;;;;;17.95;12.53;;;;;;;;;;377920;105;1963864;-71
2021/07/04 05:50:49;;;;;;;18.42;12.62;;;;;;;;;;377700;106;1961109;-71
2021/07/04 05:51:53;;;;;;;19.37;14.08;;;;;;;;;;377858;108;1960771;-71
2021/07/04 05:52:58;;;;;;;16.61;12.87;;;;;;;;;;377806;108;1960971;-71
2021/07/04 05:54:03;;;;;;;17.91;13.26;;;;;;;;;;378189;106;1960868;-71
2021/07/04 05:55:09;;;;;;;16.81;13.19;;;;;;;;;;364537;106;1960078;-71
2021/07/04 05:56:15;;;;;;;18.28;13.26;;;;;;;;;;377691;105;1960742;-71
2021/07/04 05:57:20;;;;;;;17.07;13.90;;;;;;;;;;378172;105;1960837;-72
2021/07/04 05:58:26;;;;;;;18.41;13.11;;;;;;;;;;378263;106;1960814;-71
2021/07/04 05:59:31;;;;;;;15.56;12.43;;;;;;;;;;378169;106;1960905;-72
2021/07/04 06:00:37;;;;;;;14.85;11.89;;;;;;;;;;378129;106;1960700;-71
2021/07/04 06:01:42;;;;;;;17.03;12.94;;;;;;;;;;377702;106;1960849;-72
2021/07/04 06:02:47;;;;;;;16.34;13.11;;;;;;;;;;377828;105;1960784;-73
2021/07/04 06:04:00;;;;;;;18.88;13.62;;;;;;;;;;377170;106;2980525;-72
2021/07/04 06:05:06;;;;;;;15.61;11.43;;;;;;;;;;368095;108;1960905;-71
2021/07/04 06:06:12;;;;;;;16.79;12.29;;;;;;;;;;352249;110;1962985;-72
2021/07/04 06:07:17;;;;;;;16.78;12.28;;;;;;;;;;334558;109;2022817;-72
2021/07/04 06:08:23;;;;;;;17.93;11.44;;;;;;;;;;293948;110;2427874;-73
2021/07/04 06:09:28;;;;;;;13.42;10.62;;;;;;;;;;303119;108;2341737;-72
2021/07/04 06:10:35;;;;;;;14.43;11.01;;;;;;;;;;367284;108;1961082;-72
2021/07/04 06:11:42;;;;;;;13.76;11.31;;;;;;;;;;367460;108;1961103;-73
2021/07/04 06:12:54;;;;;;;14.41;9.94;;;;;;;;;;392756;104;1985984;-72
2021/07/04 06:13:59;;;;;;;13.37;11.24;;;;;;;;;;382566;105;1964986;-72
2021/07/04 06:15:05;;;;;;;15.77;10.76;;;;;;;;;;380543;105;1961956;-72
2021/07/04 06:16:11;;;;;;;15.12;11.92;;;;;;;;;;362149;104;1962058;-72
2021/07/04 06:17:16;;;;;;;14.09;11.05;;;;;;;;;;352764;105;2002986;-73
2021/07/04 06:18:21;;;;;;;15.61;11.15;;;;;;;;;;310555;105;2394803;-72
2021/07/04 06:19:28;;;;;;;14.14;10.22;;;;;;;;;;349430;105;2581998;-71
2021/07/04 06:20:33;;;;;;;13.96;11.01;;;;;;;;;;381786;105;1964059;-73
2021/07/04 06:21:38;;;;;;;13.60;10.42;;;;;;;;;;382948;105;1961965;-71
2021/07/04 06:22:50;;;;;;;13.56;10.03;;;;;;;;;;394128;103;1986980;-71
2021/07/04 06:24:01;;;;;;;12.71;10.02;;;;;;;;;;370518;107;1964060;-71
2021/07/04 06:25:13;;;;;;;14.57;11.06;;;;;;;;;;394727;104;1985996;-72
2021/07/04 06:26:20;;;;;;;14.21;10.81;;;;;;;;;;373310;107;1961972;-71
2021/07/04 06:27:44;;;;;;;13.15;10.20;;;;;;;;;;369146;107;1962037;-71
2021/07/04 06:28:49;;;;;;;12.91;10.11;;;;;;;;;;363461;106;2921015;-72